createdAt,value
2023-07-26T00:02:12.029Z,13.90
2023-07-26T00:04:38.411Z,13.88
2023-07-26T00:07:05.223Z,13.89
2023-07-26T00:09:31.720Z,13.87
2023-07-26T00:11:58.202Z,13.84
2023-07-26T00:14:24.823Z,13.81
2023-07-26T00:16:51.467Z,13.78
2023-07-26T00:19:20.837Z,13.70
2023-07-26T00:21:48.091Z,13.60
2023-07-26T00:24:14.655Z,13.54
2023-07-26T00:26:41.671Z,13.52
2023-07-26T00:29:08.137Z,13.49
2023-07-26T00:31:34.629Z,13.42
2023-07-26T00:34:01.098Z,13.40
2023-07-26T00:36:27.672Z,13.35
2023-07-26T00:38:54.215Z,13.31
2023-07-26T00:41:20.640Z,13.25
2023-07-26T00:43:47.101Z,13.14
2023-07-26T00:46:13.965Z,13.13
2023-07-26T00:48:40.690Z,13.08
2023-07-26T00:51:07.228Z,13.06
2023-07-26T00:53:34.619Z,13.04
2023-07-26T00:56:01.295Z,12.95
2023-07-26T00:58:27.908Z,12.91
2023-07-26T01:00:54.724Z,12.90
2023-07-26T01:03:21.355Z,12.94
2023-07-26T01:05:50.763Z,12.97
2023-07-26T01:08:29.615Z,12.94
2023-07-26T01:11:21.929Z,12.91
2023-07-26T01:13:52.388Z,12.89
2023-07-26T01:16:19.623Z,12.79
2023-07-26T01:18:46.159Z,12.76
2023-07-26T01:21:15.042Z,12.73
2023-07-26T01:23:43.964Z,12.69
2023-07-26T01:26:10.469Z,12.66
2023-07-26T01:28:36.938Z,12.63
2023-07-26T01:31:05.737Z,12.60
2023-07-26T01:33:33.592Z,12.57
2023-07-26T01:36:01.734Z,12.53
2023-07-26T01:38:29.946Z,12.52
2023-07-26T01:40:57.295Z,12.47
2023-07-26T01:43:23.842Z,12.44
2023-07-26T01:45:51.424Z,12.43
2023-07-26T01:48:17.930Z,12.36
2023-07-26T01:50:44.420Z,12.32
2023-07-26T01:53:11.029Z,12.30
2023-07-26T01:55:37.636Z,12.24
2023-07-26T01:58:04.052Z,12.24
2023-07-26T02:00:30.735Z,12.23
2023-07-26T02:02:57.224Z,12.18
2023-07-26T02:05:25.778Z,12.17
2023-07-26T02:07:52.236Z,12.14
2023-07-26T02:10:18.777Z,12.12
2023-07-26T02:12:45.342Z,12.09
2023-07-26T02:15:11.875Z,12.08
2023-07-26T02:17:38.456Z,12.05
2023-07-26T02:20:05.572Z,12.01
2023-07-26T02:22:32.219Z,11.96
2023-07-26T02:24:58.666Z,11.89
2023-07-26T02:27:25.291Z,11.92
2023-07-26T02:29:51.791Z,11.88
2023-07-26T02:32:20.890Z,11.81
2023-07-26T02:34:47.481Z,11.81
2023-07-26T02:37:13.989Z,11.80
2023-07-26T02:39:40.477Z,11.74
2023-07-26T02:42:06.976Z,11.71
2023-07-26T02:44:33.473Z,11.74
2023-07-26T02:47:00.057Z,11.73
2023-07-26T02:49:26.625Z,11.68
2023-07-26T02:51:53.105Z,11.67
2023-07-26T02:54:22.595Z,11.66
2023-07-26T02:56:49.187Z,11.65
2023-07-26T02:59:15.606Z,11.58
2023-07-26T03:01:42.180Z,11.53
2023-07-26T03:04:08.677Z,11.52
2023-07-26T03:06:35.180Z,11.49
2023-07-26T03:09:01.710Z,11.41
2023-07-26T03:11:28.153Z,11.37
2023-07-26T03:13:54.766Z,11.36
2023-07-26T03:16:22.130Z,11.33
2023-07-26T03:18:48.649Z,11.28
2023-07-26T03:21:15.196Z,11.27
2023-07-26T03:23:41.713Z,11.21
2023-07-26T03:26:08.667Z,11.23
2023-07-26T03:28:36.220Z,11.22
2023-07-26T03:31:02.740Z,11.19
2023-07-26T03:33:29.214Z,11.18
2023-07-26T03:35:55.862Z,11.14
2023-07-26T03:38:22.410Z,11.17
2023-07-26T03:40:49.168Z,11.18
2023-07-26T03:43:15.633Z,11.22
2023-07-26T03:45:43.799Z,11.22
2023-07-26T03:48:10.314Z,11.21
2023-07-26T03:50:36.797Z,11.19
2023-07-26T03:53:03.239Z,11.19
2023-07-26T03:55:29.769Z,11.21
2023-07-26T03:57:57.974Z,11.22
2023-07-26T04:00:24.517Z,11.23
2023-07-26T04:02:51.223Z,11.25
2023-07-26T04:05:19.555Z,11.26
2023-07-26T04:07:46.166Z,11.28
2023-07-26T04:10:12.634Z,11.28
2023-07-26T04:12:39.114Z,11.28
2023-07-26T04:15:05.992Z,11.31
2023-07-26T04:17:32.570Z,11.32
2023-07-26T04:20:00.234Z,11.33
2023-07-26T04:22:26.736Z,11.36
2023-07-26T04:24:53.259Z,11.39
2023-07-26T04:27:19.798Z,11.41
2023-07-26T04:29:46.329Z,11.42
2023-07-26T04:32:12.784Z,11.43
2023-07-26T04:34:39.210Z,11.46
2023-07-26T04:37:05.984Z,11.49
2023-07-26T04:39:32.513Z,11.53
2023-07-26T04:41:58.935Z,11.55
2023-07-26T04:44:25.413Z,11.58
2023-07-26T04:46:52.024Z,11.61
2023-07-26T04:49:18.436Z,11.63
2023-07-26T04:51:44.938Z,11.68
2023-07-26T04:54:11.414Z,11.74
2023-07-26T04:56:37.943Z,11.80
2023-07-26T04:59:04.876Z,11.88
2023-07-26T05:01:31.658Z,11.96
2023-07-26T05:03:58.378Z,12.02
2023-07-26T05:06:25.630Z,12.06
2023-07-26T05:08:53.029Z,12.11
2023-07-26T05:11:24.020Z,12.16
2023-07-26T05:13:50.911Z,12.21
2023-07-26T05:16:17.634Z,12.25
2023-07-26T05:18:44.075Z,12.32
2023-07-26T05:21:10.517Z,12.39
2023-07-26T05:23:36.931Z,12.46
2023-07-26T05:26:03.858Z,12.54
2023-07-26T05:28:30.323Z,12.62
2023-07-26T05:30:57.824Z,12.71
2023-07-26T05:33:24.500Z,12.81
2023-07-26T05:35:50.992Z,12.90
2023-07-26T05:38:17.594Z,13.01
2023-07-26T05:40:44.114Z,13.12
2023-07-26T05:43:10.605Z,13.22
2023-07-26T05:45:37.085Z,13.28
2023-07-26T05:48:03.643Z,13.31
2023-07-26T05:50:30.183Z,13.30
2023-07-26T05:52:56.659Z,13.31
2023-07-26T05:55:23.135Z,13.30
2023-07-26T05:57:49.609Z,13.33
2023-07-26T06:00:18.655Z,13.35
2023-07-26T06:02:45.141Z,13.39
2023-07-26T06:05:11.724Z,13.42
2023-07-26T06:07:38.187Z,13.46
2023-07-26T06:10:05.023Z,13.49
2023-07-26T06:12:31.706Z,13.49
2023-07-26T06:14:58.176Z,13.50
2023-07-26T06:17:24.686Z,13.51
2023-07-26T06:19:51.214Z,13.52
2023-07-26T06:22:17.740Z,13.51
2023-07-26T06:24:44.368Z,13.51
2023-07-26T06:27:10.895Z,13.53
2023-07-26T06:29:38.241Z,13.51
2023-07-26T06:32:05.208Z,13.50
2023-07-26T06:34:31.732Z,13.52
2023-07-26T06:36:58.323Z,13.54
2023-07-26T06:39:27.885Z,13.57
2023-07-26T06:41:54.618Z,13.61
2023-07-26T06:44:21.097Z,13.63
2023-07-26T06:46:47.628Z,13.65
2023-07-26T06:49:14.038Z,13.62
2023-07-26T06:51:40.499Z,13.61
2023-07-26T06:54:07.050Z,13.60
2023-07-26T06:56:33.542Z,13.54
2023-07-26T06:58:59.984Z,13.49
2023-07-26T07:01:26.487Z,13.43
2023-07-26T07:04:07.095Z,13.46
2023-07-26T07:06:38.441Z,13.49
2023-07-26T07:09:05.467Z,13.50
2023-07-26T07:11:32.121Z,13.55
2023-07-26T07:13:59.002Z,13.64
2023-07-26T07:16:25.487Z,13.72
2023-07-26T07:18:52.087Z,13.90
2023-07-26T07:21:18.683Z,13.98
2023-07-26T07:23:45.798Z,13.96
2023-07-26T07:26:12.876Z,13.94
2023-07-26T07:28:39.412Z,13.85
2023-07-26T07:31:07.436Z,13.81
2023-07-26T07:33:33.892Z,13.80
2023-07-26T07:36:00.715Z,13.83
2023-07-26T07:38:27.380Z,13.99
2023-07-26T07:40:53.916Z,14.25
2023-07-26T07:43:20.427Z,14.62
2023-07-26T07:45:46.973Z,14.84
2023-07-26T07:48:13.460Z,14.88
2023-07-26T07:50:40.058Z,15.02
2023-07-26T07:53:06.528Z,15.08
2023-07-26T07:55:33.114Z,15.21
2023-07-26T07:58:01.599Z,15.32
2023-07-26T08:00:28.506Z,15.48
2023-07-26T08:02:55.013Z,15.65
2023-07-26T08:05:21.503Z,15.77
2023-07-26T08:07:48.027Z,15.96
2023-07-26T08:10:14.576Z,16.09
2023-07-26T08:12:41.044Z,16.23
2023-07-26T08:15:08.114Z,16.40
2023-07-26T08:17:34.750Z,16.45
2023-07-26T08:20:01.328Z,16.55
2023-07-26T08:22:27.756Z,16.71
2023-07-26T08:24:54.694Z,16.87
2023-07-26T08:27:21.804Z,16.89
2023-07-26T08:29:48.295Z,17.08
2023-07-26T08:32:14.824Z,17.29
2023-07-26T08:34:41.321Z,17.60
2023-07-26T08:37:08.000Z,17.82
2023-07-26T08:39:36.343Z,17.78
2023-07-26T08:42:04.693Z,17.70
2023-07-26T08:44:33.971Z,17.68
2023-07-26T08:47:01.869Z,17.84
2023-07-26T08:49:29.088Z,17.97
2023-07-26T08:51:58.681Z,17.98
2023-07-26T08:54:25.460Z,18.07
2023-07-26T08:56:53.527Z,18.10
2023-07-26T08:59:19.982Z,18.15
2023-07-26T09:02:00.446Z,18.48
2023-07-26T09:04:31.577Z,18.96
2023-07-26T09:07:01.778Z,19.15
2023-07-26T09:09:28.609Z,19.13
2023-07-26T09:11:55.373Z,19.24
2023-07-26T09:14:28.334Z,19.25
2023-07-26T09:16:59.056Z,19.04
2023-07-26T09:19:38.444Z,19.05
2023-07-26T09:22:08.965Z,19.27
2023-07-26T09:24:41.100Z,19.38
2023-07-26T09:27:12.438Z,19.34
2023-07-26T09:29:42.055Z,19.15
2023-07-26T09:32:09.387Z,18.88
2023-07-26T09:34:36.505Z,18.62
2023-07-26T09:37:03.375Z,18.40
2023-07-26T09:39:30.350Z,18.10
2023-07-26T09:42:09.985Z,17.89
2023-07-26T09:44:37.605Z,17.67
2023-07-26T09:47:06.866Z,17.58
2023-07-26T09:49:34.412Z,17.68
2023-07-26T09:54:34.960Z,17.75
2023-07-26T09:57:04.781Z,18.11
2023-07-26T09:59:34.946Z,18.42
2023-07-26T10:02:06.205Z,18.73
2023-07-26T10:04:51.941Z,19.01
2023-07-26T10:07:19.770Z,19.29
2023-07-26T10:09:50.042Z,19.31
2023-07-26T10:12:16.702Z,19.24
2023-07-26T10:14:43.879Z,19.36
2023-07-26T10:17:14.082Z,19.38
2023-07-26T10:19:42.443Z,18.94
2023-07-26T10:22:09.344Z,18.75
2023-07-26T10:24:37.681Z,18.64
2023-07-26T10:27:05.349Z,18.53
2023-07-26T10:29:32.153Z,18.50
2023-07-26T10:32:07.497Z,18.94
2023-07-26T10:34:35.183Z,19.38
2023-07-26T10:37:22.213Z,19.58
2023-07-26T10:39:50.589Z,19.48
2023-07-26T10:42:24.315Z,19.49
2023-07-26T10:44:52.840Z,19.57
2023-07-26T10:47:21.996Z,19.73
2023-07-26T10:49:48.690Z,19.87
2023-07-26T10:52:16.164Z,19.74
2023-07-26T10:54:44.156Z,19.80
2023-07-26T10:57:29.850Z,19.97
2023-07-26T11:00:10.724Z,19.96
2023-07-26T11:02:51.132Z,20.09
2023-07-26T11:05:22.916Z,20.17
2023-07-26T11:08:06.408Z,20.09
2023-07-26T11:10:34.692Z,20.22
2023-07-26T11:13:08.103Z,20.37
2023-07-26T11:16:13.096Z,20.67
2023-07-26T11:18:23.837Z,20.70
2023-07-26T11:20:53.453Z,20.65
2023-07-26T11:23:21.147Z,20.43
2023-07-26T11:25:50.099Z,20.49
2023-07-26T11:28:17.115Z,20.74
2023-07-26T11:30:49.727Z,20.84
2023-07-26T11:33:30.399Z,21.09
2023-07-26T11:35:57.755Z,21.10
2023-07-26T11:38:24.455Z,20.97
2023-07-26T11:40:54.026Z,20.88
2023-07-26T11:43:22.110Z,20.81
2023-07-26T11:45:49.000Z,20.81
2023-07-26T11:48:16.499Z,21.08
2023-07-26T11:50:43.471Z,20.98
2023-07-26T11:53:31.949Z,20.59
2023-07-26T11:56:06.290Z,20.30
2023-07-26T11:58:36.276Z,20.28
2023-07-26T12:01:04.610Z,20.29
2023-07-26T12:03:31.561Z,20.32
2023-07-26T12:06:01.538Z,20.28
2023-07-26T12:08:30.454Z,20.64
2023-07-26T12:10:56.990Z,20.58
2023-07-26T12:13:25.087Z,20.39
2023-07-26T12:16:02.522Z,20.60
2023-07-26T12:18:29.420Z,20.69
2023-07-26T12:21:02.733Z,20.69
2023-07-26T12:23:52.844Z,20.60
2023-07-26T12:26:24.574Z,20.61
2023-07-26T12:28:52.901Z,20.89
2023-07-26T12:31:21.570Z,21.24
2023-07-26T12:34:14.860Z,21.31
2023-07-26T12:36:48.246Z,21.31
2023-07-26T12:39:16.986Z,21.51
2023-07-26T12:41:46.089Z,21.76
2023-07-26T12:44:13.656Z,21.76
2023-07-26T12:47:11.091Z,21.82
2023-07-26T12:49:27.970Z,22.13
2023-07-26T12:51:59.128Z,21.94
2023-07-26T12:54:27.157Z,21.47
2023-07-26T12:56:53.937Z,21.52
2023-07-26T12:59:20.433Z,21.41
2023-07-26T13:01:47.053Z,21.35
2023-07-26T13:04:13.744Z,21.78
2023-07-26T13:06:40.653Z,22.26
2023-07-26T13:09:07.444Z,22.55
2023-07-26T13:11:34.513Z,22.57
2023-07-26T13:14:01.275Z,22.65
2023-07-26T13:16:31.370Z,22.55
2023-07-26T13:18:59.027Z,22.77
2023-07-26T13:21:25.498Z,22.81
2023-07-26T13:23:51.995Z,22.75
2023-07-26T13:26:18.673Z,22.75
2023-07-26T13:28:45.115Z,23.03
2023-07-26T13:31:11.549Z,23.12
2023-07-26T13:33:40.762Z,22.68
2023-07-26T13:36:21.432Z,22.72
2023-07-26T13:38:47.904Z,22.80
2023-07-26T13:41:14.397Z,23.01
2023-07-26T13:43:40.904Z,23.05
2023-07-26T13:46:16.619Z,23.14
2023-07-26T13:48:50.650Z,23.26
2023-07-26T13:51:17.182Z,23.27
2023-07-26T13:53:43.665Z,23.16
2023-07-26T13:56:10.220Z,23.12
2023-07-26T13:58:36.722Z,23.07
2023-07-26T14:01:03.778Z,23.31
2023-07-26T14:03:30.333Z,23.38
2023-07-26T14:05:56.805Z,23.60
2023-07-26T14:08:23.239Z,23.80
2023-07-26T14:10:49.759Z,23.65
2023-07-26T14:13:17.061Z,23.64
2023-07-26T14:15:43.654Z,23.53
2023-07-26T14:18:10.238Z,23.68
2023-07-26T14:20:37.721Z,23.42
2023-07-26T14:23:04.378Z,23.53
2023-07-26T14:25:30.919Z,23.55
2023-07-26T14:27:57.365Z,23.72
2023-07-26T14:30:23.830Z,23.49
2023-07-26T14:32:50.350Z,23.45
2023-07-26T14:35:16.924Z,23.64
2023-07-26T14:37:43.505Z,23.87
2023-07-26T14:40:10.380Z,23.99
2023-07-26T14:42:36.873Z,24.10
2023-07-26T14:45:03.440Z,23.81
2023-07-26T14:47:29.926Z,23.57
2023-07-26T14:50:03.804Z,23.62
2023-07-26T14:52:31.553Z,23.40
2023-07-26T14:54:57.949Z,23.18
2023-07-26T14:57:24.392Z,23.17
2023-07-26T14:59:51.634Z,23.56
2023-07-26T15:02:21.215Z,23.59
2023-07-26T15:04:47.948Z,23.59
2023-07-26T15:07:16.034Z,23.72
2023-07-26T15:09:42.793Z,23.56
2023-07-26T15:12:09.364Z,23.31
2023-07-26T15:14:36.423Z,23.03
2023-07-26T15:17:03.668Z,23.07
2023-07-26T15:19:30.192Z,23.58
2023-07-26T15:21:56.730Z,24.06
2023-07-26T15:24:23.417Z,24.36
2023-07-26T15:26:49.944Z,24.48
2023-07-26T15:29:16.697Z,24.60
2023-07-26T15:31:43.314Z,24.53
2023-07-26T15:34:09.829Z,23.88
2023-07-26T15:36:37.491Z,23.62
2023-07-26T15:39:09.694Z,23.99
2023-07-26T15:44:14.203Z,24.66
2023-07-26T15:46:43.965Z,24.41
2023-07-26T15:49:28.420Z,24.47
2023-07-26T15:51:54.899Z,24.53
2023-07-26T15:54:21.785Z,24.54
2023-07-26T15:56:49.105Z,24.36
2023-07-26T15:59:15.758Z,24.46
2023-07-26T16:01:42.338Z,24.36
2023-07-26T16:19:13.752Z,24.13
2023-07-26T16:24:09.932Z,24.34
2023-07-26T16:26:36.488Z,24.27
2023-07-26T16:29:02.962Z,24.10
2023-07-26T16:31:29.506Z,23.96
2023-07-26T16:33:56.022Z,24.14
2023-07-26T16:36:22.551Z,23.92
2023-07-26T16:38:49.548Z,23.66
2023-07-26T16:41:16.698Z,23.56
2023-07-26T16:43:43.733Z,23.45
2023-07-26T16:46:19.520Z,23.42
2023-07-26T16:48:46.127Z,23.32
2023-07-26T16:51:14.084Z,23.13
2023-07-26T16:53:43.695Z,23.03
2023-07-26T16:56:10.199Z,22.96
2023-07-26T16:58:36.721Z,22.98
2023-07-26T17:01:04.139Z,23.04
2023-07-26T17:03:30.900Z,22.91
2023-07-26T17:05:57.686Z,22.77
2023-07-26T17:08:24.335Z,22.71
2023-07-26T17:10:52.723Z,22.52
2023-07-26T17:13:19.365Z,22.40
2023-07-26T17:15:46.104Z,22.28
2023-07-26T17:18:12.609Z,22.09
2023-07-26T17:20:44.289Z,21.97
2023-07-26T17:23:14.373Z,21.78
2023-07-26T17:25:40.931Z,21.82
2023-07-26T17:28:07.383Z,21.67
2023-07-26T17:30:33.899Z,21.64
2023-07-26T17:33:00.658Z,21.53
2023-07-26T17:35:29.369Z,21.37
2023-07-26T17:37:55.794Z,21.34
2023-07-26T17:40:22.617Z,21.33
2023-07-26T17:42:49.272Z,21.06
2023-07-26T17:45:16.003Z,21.01
2023-07-26T17:47:42.605Z,20.96
2023-07-26T17:50:11.409Z,20.98
2023-07-26T17:52:37.829Z,20.89
2023-07-26T17:55:05.655Z,20.77
2023-07-26T17:57:33.067Z,20.73
2023-07-26T17:59:59.699Z,20.70
2023-07-26T18:02:26.554Z,20.61
2023-07-26T18:04:53.083Z,20.51
2023-07-26T18:07:19.660Z,20.48
2023-07-26T18:09:46.187Z,20.35
2023-07-26T18:12:12.733Z,20.30
2023-07-26T18:14:40.116Z,20.28
2023-07-26T18:17:07.234Z,20.16
2023-07-26T18:19:33.744Z,20.10
2023-07-26T18:22:01.736Z,20.01
2023-07-26T18:24:28.383Z,19.99
2023-07-26T18:26:55.015Z,19.94
2023-07-26T18:29:21.931Z,19.73
2023-07-26T18:31:48.553Z,19.65
2023-07-26T18:34:15.017Z,19.59
2023-07-26T18:36:41.750Z,19.57
2023-07-26T18:39:08.272Z,19.44
2023-07-26T18:41:35.119Z,19.32
2023-07-26T18:44:01.628Z,19.16
2023-07-26T18:46:28.420Z,19.08
2023-07-26T18:48:56.664Z,18.98
2023-07-26T18:51:23.121Z,18.86
2023-07-26T18:53:49.587Z,18.80
2023-07-26T18:56:16.103Z,18.81
2023-07-26T18:58:44.067Z,18.77
2023-07-26T19:01:10.938Z,18.71
2023-07-26T19:03:37.442Z,18.66
2023-07-26T19:06:04.225Z,18.57
2023-07-26T19:08:30.694Z,18.49
2023-07-26T19:10:57.686Z,18.42
2023-07-26T19:13:24.324Z,18.44
2023-07-26T19:15:56.216Z,18.35
2023-07-26T19:18:22.874Z,18.36
2023-07-26T19:20:49.323Z,18.28
2023-07-26T19:23:17.369Z,18.20
2023-07-26T19:25:44.840Z,18.11
2023-07-26T19:28:11.404Z,18.07
2023-07-26T19:30:38.005Z,17.99
2023-07-26T19:33:04.618Z,17.97
2023-07-26T19:35:31.243Z,17.88
2023-07-26T19:37:57.763Z,17.78
2023-07-26T19:40:24.347Z,17.73
2023-07-26T19:42:50.883Z,17.71
2023-07-26T19:45:17.356Z,17.71
2023-07-26T19:47:44.178Z,17.70
2023-07-26T19:50:10.964Z,17.73
2023-07-26T19:52:39.197Z,17.72
2023-07-26T19:55:09.313Z,17.65
2023-07-26T19:57:35.902Z,17.58
2023-07-26T20:00:04.439Z,17.56
2023-07-26T20:02:31.201Z,17.50
2023-07-26T20:04:57.741Z,17.45
2023-07-26T20:07:24.368Z,17.46
2023-07-26T20:09:50.879Z,17.41
2023-07-26T20:12:17.409Z,17.40
2023-07-26T20:14:43.922Z,17.40
2023-07-26T20:17:11.492Z,17.33
2023-07-26T20:19:38.013Z,17.30
2023-07-26T20:22:04.727Z,17.23
2023-07-26T20:24:31.264Z,17.21
2023-07-26T20:26:57.868Z,17.16
2023-07-26T20:29:26.049Z,17.16
2023-07-26T20:31:52.543Z,17.04
2023-07-26T20:34:22.196Z,16.95
2023-07-26T20:36:48.687Z,16.90
2023-07-26T20:39:15.081Z,16.88
2023-07-26T20:41:41.631Z,16.77
2023-07-26T20:44:08.072Z,16.76
2023-07-26T20:46:34.632Z,16.73
2023-07-26T20:49:01.105Z,16.66
2023-07-26T20:51:27.578Z,16.66
2023-07-26T20:53:54.357Z,16.57
2023-07-26T20:56:20.856Z,16.55
2023-07-26T20:58:47.268Z,16.54
2023-07-26T21:01:13.780Z,16.50
2023-07-26T21:03:40.340Z,16.37
2023-07-26T21:06:06.883Z,16.29
2023-07-26T21:08:33.398Z,16.32
2023-07-26T21:10:59.944Z,16.24
2023-07-26T21:13:27.426Z,16.23
2023-07-26T21:15:55.434Z,16.19
2023-07-26T21:18:24.048Z,16.23
2023-07-26T21:20:50.528Z,16.20
2023-07-26T21:23:17.228Z,16.14
2023-07-26T21:25:47.347Z,16.12
2023-07-26T21:28:14.131Z,16.12
2023-07-26T21:30:40.670Z,16.09
2023-07-26T21:33:07.999Z,16.03
2023-07-26T21:35:34.516Z,16.03
2023-07-26T21:38:00.936Z,15.98
2023-07-26T21:40:27.346Z,15.94
2023-07-26T21:42:53.817Z,15.93
2023-07-26T21:45:20.316Z,15.94
2023-07-26T21:47:46.849Z,15.92
2023-07-26T21:50:13.551Z,15.88
2023-07-26T21:52:40.031Z,15.85
2023-07-26T21:55:07.056Z,15.87
2023-07-26T21:57:33.667Z,15.85
2023-07-26T22:00:00.130Z,15.81
2023-07-26T22:02:26.679Z,15.81
2023-07-26T22:04:53.966Z,15.82
2023-07-26T22:07:20.626Z,15.75
2023-07-26T22:09:47.063Z,15.75
2023-07-26T22:12:13.551Z,15.76
2023-07-26T22:14:40.021Z,15.76
2023-07-26T22:17:06.720Z,15.73
2023-07-26T22:19:33.244Z,15.68
2023-07-26T22:21:59.678Z,15.64
2023-07-26T22:24:26.244Z,15.62
2023-07-26T22:26:52.813Z,15.62
2023-07-26T22:29:19.326Z,15.58
2023-07-26T22:31:45.915Z,15.58
2023-07-26T22:34:12.494Z,15.58
2023-07-26T22:36:41.732Z,15.56
2023-07-26T22:39:08.191Z,15.52
2023-07-26T22:41:34.991Z,15.48
2023-07-26T22:44:01.737Z,15.48
2023-07-26T22:46:28.342Z,15.42
2023-07-26T22:48:54.840Z,15.43
2023-07-26T22:51:21.317Z,15.46
2023-07-26T22:53:49.672Z,15.41
2023-07-26T22:56:17.304Z,15.38
2023-07-26T22:58:44.269Z,15.35
2023-07-26T23:01:11.131Z,15.32
2023-07-26T23:03:37.731Z,15.33
2023-07-26T23:06:05.158Z,15.35
2023-07-26T23:08:31.670Z,15.34
2023-07-26T23:10:59.664Z,15.35
2023-07-26T23:13:27.397Z,15.36
2023-07-26T23:15:54.468Z,15.36
2023-07-26T23:18:21.010Z,15.35
2023-07-26T23:20:51.973Z,15.33
2023-07-26T23:23:20.320Z,15.33
2023-07-26T23:25:47.137Z,15.28
2023-07-26T23:28:14.225Z,15.25
2023-07-26T23:30:49.954Z,15.25
2023-07-26T23:33:17.110Z,15.25
2023-07-26T23:35:44.711Z,15.21
2023-07-26T23:38:11.353Z,15.20
2023-07-26T23:40:38.065Z,15.18
2023-07-26T23:43:09.132Z,15.18
2023-07-26T23:45:36.785Z,15.17
2023-07-26T23:48:03.778Z,15.20
2023-07-26T23:50:30.257Z,15.21
2023-07-26T23:52:56.713Z,15.21
2023-07-26T23:55:23.526Z,15.19
2023-07-26T23:57:50.060Z,15.16
